PWSweather.com
Personal Weather Stations
Station Observations
PENICUIKWS
PenicuikGB

PenicuikGB

Lat: 55.830932, Lon: -3.224533000000065

Elevation: 166

Station Type: Fine Offset

http://weather.penicuik.org

High Low Average
Temperature 48.4°F9.1°C 22.1°F-5.5°C 31.8°F-0.1°C
Dew Point 34.9°F1.6°C 17.1°F-8.3°C 26.2°F-3.2°C
Winds 4.5 mph 7.2 kmh 0.1 mph 0.2 kmh 2.0 mph ENE3.2 kmh ENE
Wind Gusts 9.2 mph14.8 kmh 0.7 mph1.1 kmh 3.0 mph4.8 kmh
Humidity 88% 52% 80%
Pressure 29.85 in1010.8 mb 29.47 in998.0 mb -
Precipitation 0.04 in1.0 mm - -
Hour Temp Dew Point Humidity Winds Wind Gusts Pressure Precip Precip Rate Daily Precip Total
12:00 AM 33.6°F0.9°C 30.5°F-0.8°C 88% 0.8 mph N1.3 kmh N 1.6 mph2.6 kmh 29.50 in999.0 mb 0.00 in0.0 mm 0.00 in0.0 mm 0.00 in0.0 mm
12:15 AM 33.8°F1.0°C 30.4°F-0.9°C 87% 0.7 mph N1.1 kmh N 2.2 mph3.5 kmh 29.50 in999.0 mb 0.00 in0.0 mm 0.00 in0.0 mm 0.00 in0.0 mm
12:30 AM 34.2°F1.2°C 31.0°F-0.6°C 88% 1.9 mph NNW3.1 kmh NNW 3.8 mph6.1 kmh 29.50 in999.0 mb 0.00 in0.0 mm 0.00 in0.0 mm 0.00 in0.0 mm
12:45 AM 34.0°F1.1°C 30.8°F-0.7°C 88% 1.7 mph NNW2.7 kmh NNW 3.8 mph6.1 kmh 29.49 in998.6 mb 0.00 in0.0 mm 0.00 in0.0 mm 0.00 in0.0 mm
01:00 AM 34.5°F1.4°C 31.3°F-0.4°C 88% 3.6 mph SSW5.8 kmh SSW 6.9 mph11.1 kmh 29.49 in998.6 mb 0.00 in0.0 mm 0.00 in0.0 mm 0.00 in0.0 mm
01:30 AM 34.3°F1.3°C 30.9°F-0.6°C 87% 3.8 mph SSW6.1 kmh SSW 6.0 mph9.7 kmh 29.49 in998.6 mb 0.00 in0.0 mm 0.00 in0.0 mm 0.00 in0.0 mm
01:45 AM 34.5°F1.4°C 30.8°F-0.7°C 86% 4.4 mph SSW7.1 kmh SSW 9.2 mph14.8 kmh 29.49 in998.6 mb 0.00 in0.0 mm 0.00 in0.0 mm 0.00 in0.0 mm
02:00 AM 34.5°F1.4°C 30.8°F-0.7°C 86% 2.9 mph NE4.7 kmh NE 7.6 mph12.2 kmh 29.48 in998.3 mb 0.00 in0.0 mm 0.00 in0.0 mm 0.00 in0.0 mm
02:15 AM 34.2°F1.2°C 30.1°F-1.1°C 85% 3.9 mph S6.3 kmh S 6.9 mph11.1 kmh 29.48 in998.3 mb 0.00 in0.0 mm 0.00 in0.0 mm 0.00 in0.0 mm
02:45 AM 34.0°F1.1°C 30.0°F-1.1°C 85% 3.1 mph SSW5.0 kmh SSW 5.4 mph8.7 kmh 29.47 in998.0 mb 0.00 in0.0 mm 0.00 in0.0 mm 0.00 in0.0 mm
03:00 AM 34.0°F1.1°C 30.0°F-1.1°C 85% 3.5 mph NE5.6 kmh NE 8.3 mph13.4 kmh 29.48 in998.3 mb 0.00 in0.0 mm 0.00 in0.0 mm 0.00 in0.0 mm
03:15 AM 34.2°F1.2°C 29.8°F-1.2°C 84% 4.2 mph NE6.8 kmh NE 6.9 mph11.1 kmh 29.48 in998.3 mb 0.00 in0.0 mm 0.00 in0.0 mm 0.00 in0.0 mm
03:30 AM 34.3°F1.3°C 30.0°F-1.1°C 84% 2.8 mph NE4.5 kmh NE 3.1 mph5.0 kmh 29.48 in998.3 mb 0.00 in0.0 mm 0.00 in0.0 mm 0.00 in0.0 mm
03:45 AM 34.2°F1.2°C 29.3°F-1.5°C 82% 2.6 mph NE4.2 kmh NE 3.8 mph6.1 kmh 29.48 in998.3 mb 0.00 in0.0 mm 0.00 in0.0 mm 0.00 in0.0 mm
04:00 AM 33.8°F1.0°C 28.6°F-1.9°C 81% 2.5 mph NE4.0 kmh NE 3.1 mph5.0 kmh 29.47 in998.0 mb 0.00 in0.0 mm 0.00 in0.0 mm 0.00 in0.0 mm
04:15 AM 34.0°F1.1°C 28.8°F-1.8°C 81% 2.5 mph NE4.0 kmh NE 6.0 mph9.7 kmh 29.47 in998.0 mb 0.00 in0.0 mm 0.00 in0.0 mm 0.00 in0.0 mm
04:30 AM 33.3°F0.7°C 28.4°F-2.0°C 82% 1.6 mph NE2.6 kmh NE 3.1 mph5.0 kmh 29.47 in998.0 mb 0.00 in0.0 mm 0.00 in0.0 mm 0.00 in0.0 mm
04:45 AM 32.5°F0.3°C 27.7°F-2.4°C 82% 1.8 mph NE2.9 kmh NE 3.1 mph5.0 kmh 29.47 in998.0 mb 0.00 in0.0 mm 0.00 in0.0 mm 0.00 in0.0 mm
05:00 AM 32.4°F0.2°C 27.5°F-2.5°C 82% 1.8 mph NE2.9 kmh NE 3.1 mph5.0 kmh 29.47 in998.0 mb 0.00 in0.0 mm 0.00 in0.0 mm 0.00 in0.0 mm
05:15 AM 32.2°F0.1°C 27.6°F-2.4°C 83% 1.9 mph NE3.1 kmh NE 3.1 mph5.0 kmh 29.47 in998.0 mb 0.00 in0.0 mm 0.00 in0.0 mm 0.00 in0.0 mm
05:30 AM 32.2°F0.1°C 27.6°F-2.4°C 83% 3.1 mph NE5.0 kmh NE 5.4 mph8.7 kmh 29.47 in998.0 mb 0.00 in0.0 mm 0.00 in0.0 mm 0.00 in0.0 mm
05:45 AM 32.0°F0.0°C 27.7°F-2.4°C 84% 1.6 mph NE2.6 kmh NE 3.8 mph6.1 kmh 29.47 in998.0 mb 0.00 in0.0 mm 0.00 in0.0 mm 0.00 in0.0 mm
06:00 AM 31.5°F-0.3°C 27.5°F-2.5°C 85% 1.4 mph NE2.3 kmh NE 3.1 mph5.0 kmh 29.47 in998.0 mb 0.00 in0.0 mm 0.00 in0.0 mm 0.00 in0.0 mm
06:30 AM 32.0°F0.0°C 28.0°F-2.2°C 85% 1.5 mph NE2.4 kmh NE 3.1 mph5.0 kmh 29.47 in998.0 mb 0.00 in0.0 mm 0.00 in0.0 mm 0.00 in0.0 mm
06:45 AM 31.8°F-0.1°C 28.1°F-2.2°C 86% 1.7 mph NE2.7 kmh NE 2.2 mph3.5 kmh 29.48 in998.3 mb 0.00 in0.0 mm 0.00 in0.0 mm 0.00 in0.0 mm
07:00 AM 31.6°F-0.2°C 28.0°F-2.2°C 86% 1.7 mph NE2.7 kmh NE 3.1 mph5.0 kmh 29.48 in998.3 mb 0.00 in0.0 mm 0.00 in0.0 mm 0.00 in0.0 mm
07:15 AM 31.3°F-0.4°C 27.9°F-2.3°C 87% 0.7 mph NE1.1 kmh NE 2.2 mph3.5 kmh 29.48 in998.3 mb 0.00 in0.0 mm 0.00 in0.0 mm 0.00 in0.0 mm
07:30 AM 30.9°F-0.6°C 27.5°F-2.5°C 87% 0.6 mph NE1.0 kmh NE 1.6 mph2.6 kmh 29.48 in998.3 mb 0.00 in0.0 mm 0.00 in0.0 mm 0.00 in0.0 mm
07:45 AM 30.6°F-0.8°C 27.2°F-2.7°C 87% 1.2 mph NE1.9 kmh NE 1.6 mph2.6 kmh 29.48 in998.3 mb 0.00 in0.0 mm 0.00 in0.0 mm 0.00 in0.0 mm
08:00 AM 30.7°F-0.7°C 27.3°F-2.6°C 87% 2.7 mph NE4.3 kmh NE 5.4 mph8.7 kmh 29.48 in998.3 mb 0.00 in0.0 mm 0.00 in0.0 mm 0.00 in0.0 mm
08:15 AM 30.0°F-1.1°C 26.9°F-2.8°C 88% 2.5 mph NE4.0 kmh NE 3.8 mph6.1 kmh 29.49 in998.6 mb 0.00 in0.0 mm 0.00 in0.0 mm 0.00 in0.0 mm
08:30 AM 29.7°F-1.3°C 26.6°F-3.0°C 88% 1.2 mph NE1.9 kmh NE 1.6 mph2.6 kmh 29.50 in999.0 mb 0.00 in0.0 mm 0.00 in0.0 mm 0.00 in0.0 mm
08:45 AM 29.1°F-1.6°C 26.0°F-3.3°C 88% 0.4 mph NE0.6 kmh NE 0.7 mph1.1 kmh 29.50 in999.0 mb 0.00 in0.0 mm 0.00 in0.0 mm 0.00 in0.0 mm
09:00 AM 29.8°F-1.2°C 26.7°F-2.9°C 88% 0.7 mph NE1.1 kmh NE 1.6 mph2.6 kmh 29.51 in999.3 mb 0.00 in0.0 mm 0.00 in0.0 mm 0.00 in0.0 mm
09:15 AM 31.1°F-0.5°C 28.0°F-2.2°C 88% 2.3 mph NE3.7 kmh NE 5.4 mph8.7 kmh 29.51 in999.3 mb 0.00 in0.0 mm 0.00 in0.0 mm 0.00 in0.0 mm
09:30 AM 31.8°F-0.1°C 28.7°F-1.8°C 88% 2.3 mph NE3.7 kmh NE 4.5 mph7.2 kmh 29.51 in999.3 mb 0.00 in0.0 mm 0.00 in0.0 mm 0.00 in0.0 mm
09:45 AM 32.4°F0.2°C 28.9°F-1.7°C 87% 0.5 mph NE0.8 kmh NE 1.6 mph2.6 kmh 29.50 in999.0 mb 0.00 in0.0 mm 0.00 in0.0 mm 0.00 in0.0 mm
10:00 AM 32.9°F0.5°C 29.8°F-1.2°C 88% 1.6 mph NE2.6 kmh NE 3.8 mph6.1 kmh 29.52 in999.7 mb 0.00 in0.0 mm 0.00 in0.0 mm 0.00 in0.0 mm
10:15 AM 34.2°F1.2°C 30.7°F-0.7°C 87% 1.9 mph NE3.1 kmh NE 3.1 mph5.0 kmh 29.51 in999.3 mb 0.00 in0.0 mm 0.00 in0.0 mm 0.00 in0.0 mm
10:30 AM 36.3°F2.4°C 32.0°F0.0°C 84% 1.7 mph NE2.7 kmh NE 3.1 mph5.0 kmh 29.52 in999.7 mb 0.00 in0.0 mm 0.00 in0.0 mm 0.00 in0.0 mm
10:45 AM 37.4°F3.0°C 33.0°F0.6°C 84% 1.5 mph NE2.4 kmh NE 2.2 mph3.5 kmh 29.52 in999.7 mb 0.00 in0.0 mm 0.00 in0.0 mm 0.00 in0.0 mm
11:00 AM 41.2°F5.1°C 34.9°F1.6°C 78% 1.2 mph E1.9 kmh E 2.2 mph3.5 kmh 29.52 in999.7 mb 0.00 in0.0 mm 0.00 in0.0 mm 0.00 in0.0 mm
11:15 AM 44.2°F6.8°C 33.6°F0.9°C 66% 1.4 mph SE2.3 kmh SE 2.2 mph3.5 kmh 29.52 in999.7 mb 0.00 in0.0 mm 0.00 in0.0 mm 0.00 in0.0 mm
11:30 AM 45.9°F7.7°C 32.4°F0.2°C 59% 2.0 mph SSW3.2 kmh SSW 3.1 mph5.0 kmh 29.52 in999.7 mb 0.00 in0.0 mm 0.00 in0.0 mm 0.00 in0.0 mm
11:45 AM 47.1°F8.4°C 32.7°F0.4°C 57% 1.4 mph S2.3 kmh S 2.2 mph3.5 kmh 29.52 in999.7 mb 0.00 in0.0 mm 0.00 in0.0 mm 0.00 in0.0 mm
12:00 PM 48.4°F9.1°C 32.5°F0.3°C 54% 0.7 mph SW1.1 kmh SW 2.2 mph3.5 kmh 29.52 in999.7 mb 0.01 in0.3 mm 0.01 in0.3 mm 0.01 in0.3 mm
12:15 PM 45.1°F7.3°C 28.6°F-1.9°C 52% 1.1 mph SW1.8 kmh SW 2.2 mph3.5 kmh 29.52 in999.7 mb 0.02 in0.5 mm 0.04 in1.0 mm 0.02 in0.5 mm
12:30 PM 39.2°F4.0°C 26.9°F-2.8°C 61% 1.2 mph WSW1.9 kmh WSW 2.2 mph3.5 kmh 29.52 in999.7 mb 0.04 in1.0 mm 0.08 in2.0 mm 0.04 in1.0 mm
01:00 PM 37.0°F2.8°C 26.8°F-2.9°C 66% 0.4 mph N0.6 kmh N 2.2 mph3.5 kmh 29.54 in1000.3 mb 0.02 in0.5 mm 0.00 in0.0 mm 0.04 in1.0 mm
01:15 PM 36.7°F2.6°C 27.1°F-2.7°C 68% 1.8 mph N2.9 kmh N 3.1 mph5.0 kmh 29.54 in1000.3 mb 0.01 in0.3 mm 0.00 in0.0 mm 0.04 in1.0 mm
01:30 PM 36.0°F2.2°C 26.8°F-2.9°C 69% 0.2 mph WSW0.3 kmh WSW 0.7 mph1.1 kmh 29.54 in1000.3 mb 0.00 in0.0 mm 0.00 in0.0 mm 0.04 in1.0 mm
01:45 PM 35.2°F1.8°C 26.5°F-3.1°C 70% 0.2 mph ENE0.3 kmh ENE 0.7 mph1.1 kmh 29.55 in1000.7 mb 0.00 in0.0 mm 0.00 in0.0 mm 0.04 in1.0 mm
02:00 PM 34.9°F1.6°C 26.5°F-3.1°C 71% 0.2 mph NE0.3 kmh NE 0.7 mph1.1 kmh 29.56 in1001.0 mb 0.00 in0.0 mm 0.00 in0.0 mm 0.04 in1.0 mm
02:15 PM 34.3°F1.3°C 26.3°F-3.2°C 72% 0.1 mph NE0.2 kmh NE 0.7 mph1.1 kmh 29.57 in1001.4 mb 0.00 in0.0 mm 0.00 in0.0 mm 0.04 in1.0 mm
02:30 PM 34.2°F1.2°C 26.1°F-3.3°C 72% 0.4 mph NE0.6 kmh NE 1.6 mph2.6 kmh 29.57 in1001.4 mb 0.00 in0.0 mm 0.00 in0.0 mm 0.04 in1.0 mm
02:45 PM 33.8°F1.0°C 26.1°F-3.3°C 73% 0.1 mph NE0.2 kmh NE 0.7 mph1.1 kmh 29.58 in1001.7 mb 0.00 in0.0 mm 0.00 in0.0 mm 0.04 in1.0 mm
03:00 PM 33.8°F1.0°C 26.1°F-3.3°C 73% 0.2 mph NE0.3 kmh NE 1.6 mph2.6 kmh 29.59 in1002.0 mb 0.00 in0.0 mm 0.00 in0.0 mm 0.04 in1.0 mm
03:15 PM 33.4°F0.8°C 26.7°F-2.9°C 76% 0.6 mph NE1.0 kmh NE 1.6 mph2.6 kmh 29.60 in1002.4 mb 0.00 in0.0 mm 0.00 in0.0 mm 0.04 in1.0 mm
03:30 PM 33.1°F0.6°C 26.4°F-3.1°C 76% 0.1 mph NE0.2 kmh NE 0.7 mph1.1 kmh 29.61 in1002.7 mb 0.00 in0.0 mm 0.00 in0.0 mm 0.04 in1.0 mm
03:45 PM 32.5°F0.3°C 26.2°F-3.2°C 77% 0.7 mph NE1.1 kmh NE 1.6 mph2.6 kmh 29.62 in1003.0 mb 0.00 in0.0 mm 0.00 in0.0 mm 0.04 in1.0 mm
04:00 PM 31.8°F-0.1°C 25.8°F-3.4°C 78% 0.1 mph NE0.2 kmh NE 0.7 mph1.1 kmh 29.63 in1003.4 mb 0.00 in0.0 mm 0.00 in0.0 mm 0.04 in1.0 mm
04:15 PM 30.9°F-0.6°C 25.2°F-3.8°C 79% 0.3 mph NE0.5 kmh NE 0.7 mph1.1 kmh 29.64 in1003.7 mb 0.00 in0.0 mm 0.00 in0.0 mm 0.04 in1.0 mm
04:30 PM 29.7°F-1.3°C 24.3°F-4.3°C 80% 0.2 mph NE0.3 kmh NE 0.7 mph1.1 kmh 29.65 in1004.1 mb 0.00 in0.0 mm 0.00 in0.0 mm 0.04 in1.0 mm
04:45 PM 29.1°F-1.6°C 24.0°F-4.4°C 81% 0.2 mph NE0.3 kmh NE 0.7 mph1.1 kmh 29.65 in1004.1 mb 0.00 in0.0 mm 0.00 in0.0 mm 0.04 in1.0 mm
05:00 PM 28.8°F-1.8°C 24.0°F-4.4°C 82% 0.8 mph NE1.3 kmh NE 2.2 mph3.5 kmh 29.66 in1004.4 mb 0.00 in0.0 mm 0.00 in0.0 mm 0.04 in1.0 mm
05:30 PM 28.2°F-2.1°C 22.6°F-5.2°C 79% 0.8 mph NE1.3 kmh NE 1.6 mph2.6 kmh 29.68 in1005.1 mb 0.00 in0.0 mm 0.00 in0.0 mm 0.04 in1.0 mm
05:45 PM 27.7°F-2.4°C 22.0°F-5.6°C 79% 1.1 mph NE1.8 kmh NE 2.2 mph3.5 kmh 29.69 in1005.4 mb 0.00 in0.0 mm 0.00 in0.0 mm 0.04 in1.0 mm
06:00 PM 27.1°F-2.7°C 21.5°F-5.8°C 79% 1.4 mph NE2.3 kmh NE 1.6 mph2.6 kmh 29.70 in1005.8 mb 0.00 in0.0 mm 0.00 in0.0 mm 0.04 in1.0 mm
06:15 PM 26.8°F-2.9°C 21.5°F-5.8°C 80% 1.1 mph NE1.8 kmh NE 2.2 mph3.5 kmh 29.71 in1006.1 mb 0.00 in0.0 mm 0.00 in0.0 mm 0.04 in1.0 mm
06:30 PM 26.8°F-2.9°C 21.5°F-5.8°C 80% 1.2 mph NE1.9 kmh NE 1.6 mph2.6 kmh 29.72 in1006.4 mb 0.00 in0.0 mm 0.00 in0.0 mm 0.04 in1.0 mm
06:45 PM 26.8°F-2.9°C 21.8°F-5.7°C 81% 0.3 mph NE0.5 kmh NE 0.7 mph1.1 kmh 29.73 in1006.8 mb 0.00 in0.0 mm 0.00 in0.0 mm 0.04 in1.0 mm
07:00 PM 27.0°F-2.8°C 21.9°F-5.6°C 81% 1.2 mph NE1.9 kmh NE 3.1 mph5.0 kmh 29.74 in1007.1 mb 0.00 in0.0 mm 0.00 in0.0 mm 0.04 in1.0 mm
07:15 PM 27.0°F-2.8°C 21.9°F-5.6°C 81% 1.3 mph NE2.1 kmh NE 1.6 mph2.6 kmh 29.74 in1007.1 mb 0.00 in0.0 mm 0.00 in0.0 mm 0.04 in1.0 mm
07:30 PM 26.6°F-3.0°C 21.6°F-5.8°C 81% 1.0 mph NE1.6 kmh NE 2.2 mph3.5 kmh 29.75 in1007.5 mb 0.00 in0.0 mm 0.00 in0.0 mm 0.04 in1.0 mm
08:00 PM 26.4°F-3.1°C 22.0°F-5.6°C 83% 1.5 mph NE2.4 kmh NE 1.6 mph2.6 kmh 29.76 in1007.8 mb 0.00 in0.0 mm 0.00 in0.0 mm 0.04 in1.0 mm
08:15 PM 25.9°F-3.4°C 21.2°F-6.0°C 82% 1.6 mph NE2.6 kmh NE 1.6 mph2.6 kmh 29.77 in1008.1 mb 0.00 in0.0 mm 0.00 in0.0 mm 0.04 in1.0 mm
08:45 PM 25.3°F-3.7°C 20.6°F-6.3°C 82% 1.0 mph NE1.6 kmh NE 3.1 mph5.0 kmh 29.78 in1008.5 mb 0.00 in0.0 mm 0.00 in0.0 mm 0.04 in1.0 mm
09:00 PM 25.3°F-3.7°C 20.6°F-6.3°C 82% 0.9 mph NE1.4 kmh NE 1.6 mph2.6 kmh 29.78 in1008.5 mb 0.00 in0.0 mm 0.00 in0.0 mm 0.04 in1.0 mm
09:15 PM 25.5°F-3.6°C 20.8°F-6.2°C 82% 1.2 mph NE1.9 kmh NE 1.6 mph2.6 kmh 29.78 in1008.5 mb 0.00 in0.0 mm 0.00 in0.0 mm 0.04 in1.0 mm
09:30 PM 24.8°F-4.0°C 20.1°F-6.6°C 82% 2.0 mph NE3.2 kmh NE 3.1 mph5.0 kmh 29.78 in1008.5 mb 0.00 in0.0 mm 0.00 in0.0 mm 0.04 in1.0 mm
09:45 PM 24.4°F-4.2°C 20.1°F-6.6°C 83% 0.9 mph NE1.4 kmh NE 2.2 mph3.5 kmh 29.80 in1009.1 mb 0.00 in0.0 mm 0.00 in0.0 mm 0.04 in1.0 mm
10:00 PM 24.3°F-4.3°C 19.6°F-6.9°C 82% 1.9 mph NE3.1 kmh NE 3.1 mph5.0 kmh 29.81 in1009.5 mb 0.00 in0.0 mm 0.00 in0.0 mm 0.04 in1.0 mm
10:15 PM 24.1°F-4.4°C 19.4°F-7.0°C 82% 3.2 mph NE5.1 kmh NE 3.8 mph6.1 kmh 29.83 in1010.2 mb 0.00 in0.0 mm 0.00 in0.0 mm 0.04 in1.0 mm
10:30 PM 23.0°F-5.0°C 17.8°F-7.9°C 80% 4.5 mph NE7.2 kmh NE 6.9 mph11.1 kmh 29.84 in1010.5 mb 0.00 in0.0 mm 0.00 in0.0 mm 0.04 in1.0 mm
10:45 PM 22.3°F-5.4°C 17.4°F-8.1°C 81% 1.8 mph NE2.9 kmh NE 3.8 mph6.1 kmh 29.84 in1010.5 mb 0.00 in0.0 mm 0.00 in0.0 mm 0.04 in1.0 mm
11:00 PM 22.3°F-5.4°C 17.1°F-8.3°C 80% 3.3 mph NE5.3 kmh NE 4.5 mph7.2 kmh 29.85 in1010.8 mb 0.00 in0.0 mm 0.00 in0.0 mm 0.04 in1.0 mm
11:15 PM 22.1°F-5.5°C 17.2°F-8.2°C 81% 2.3 mph NE3.7 kmh NE 4.5 mph7.2 kmh 29.85 in1010.8 mb 0.00 in0.0 mm 0.00 in0.0 mm 0.04 in1.0 mm
11:30 PM 22.1°F-5.5°C 17.2°F-8.2°C 81% 1.0 mph NE1.6 kmh NE 2.2 mph3.5 kmh 29.85 in1010.8 mb 0.00 in0.0 mm 0.00 in0.0 mm 0.04 in1.0 mm
11:45 PM 22.1°F-5.5°C 17.2°F-8.2°C 81% 2.6 mph NE4.2 kmh NE 4.5 mph7.2 kmh 29.85 in1010.8 mb 0.00 in0.0 mm 0.00 in0.0 mm 0.04 in1.0 mm